Řízení letového provozu České republiky  
Aktualizace dat:  23.11.2020 19:36:24 UTC English version
   METEO Zobrazení stránky:  23.11.2020 19:37:32 UTC  
vysvětlivky
METAR EDDB 231920Z 25009KT 9999 BKN037 06/03 Q1027 NOSIG=
METAR EDDC 231920Z 23005KT CAVOK 04/01 Q1029 NOSIG=
METAR EDDE 231920Z 20008KT CAVOK 01/M01 Q1028 NOSIG=
METAR EDDF 231920Z VRB02KT 4800 BR FEW007 05/05 Q1030 BECMG 2500 BR BKN003=
METAR EDDM 231920Z VRB02KT 4000 BR BKN006 05/05 Q1030 TEMPO BKN004=
METAR EDDN 231920Z VRB02KT 3500 R28/0450D BCFG BR SCT001 01/01 Q1030 TEMPO 2000=
METAR EDDP 231920Z 22005KT CAVOK 03/01 Q1029 NOSIG=
METAR EDDT NIL
METAR EDQM 231850Z 20002KT CAVOK M00/M00 Q1029=
METAR EPBY 231930Z 27013KT 9999 FEW029 06/03 Q1023=
METAR EPGD 231930Z 27012KT 9999 FEW018 SCT027 05/03 Q1019=
METAR EPKK 231930Z 26010KT 9999 BKN047 04/02 Q1027=
METAR EPKT 231930Z 26007KT 9999 BKN036 04/02 Q1027=
METAR EPLL 231930Z 26013KT 9999 OVC039 06/02 Q1025=
METAR EPPO 231930Z 26010KT 9999 BKN037 06/03 Q1026=
METAR EPRZ 231930Z 26013KT CAVOK 05/02 Q1025=
METAR EPWA 231930Z 27014KT 9999 BKN038 06/03 Q1022 NOSIG=
METAR EPWR 231930Z 28009KT 9999 BKN040 07/02 Q1028=
METAR LHBP 231930Z 26004KT 3000 BR NSC 01/01 Q1029 BECMG 2500=
METAR LHSM 231915Z AUTO 25002KT 6000 NSC 02/00 Q1030=
METAR LKBC 231930Z AUTO 28001KT 6000 BR NCD 01/00 Q1030=
METAR LKCV 231930Z 21003KT 9999 FEW037 02/00 Q1030 NOSIG RMK BLU BLU=
METAR LKKB 231930Z 22005KT CAVOK 03/M00 Q1030 NOSIG RMK BLU BLU=
METAR LKKU NIL
METAR LKKV 231900Z VRB02KT 9999 R29/1000 BCFG FEW001 00/00 Q1029 RMK REG QNH 1026=
SPECI LKLN 231931Z AUTO 00000KT 2300 BR NCD M01/// Q1030=
METAR LKMT 231930Z 22010KT 7000 OVC045 03/01 Q1029 NOSIG RMK REG QNH 1026=
METAR LKNA 231930Z 32006KT 300V360 7000 NSC 01/00 Q1029 NOSIG RMK WHT WHT=
METAR LKPD 231930Z 22003KT CAVOK 01/01 Q1029 NOSIG RMK BLACK BLU=
SPECI LKPJ 231939Z AUTO 29002KT 1100 BR FEW015 SCT018 M00/M01 Q1030=
METAR LKPR 231930Z 21008KT CAVOK 01/M00 Q1029 NOSIG RMK REG QNH 1026=
METAR LKTB 231930Z VRB02KT 0100 R27/0450N FG OVC001 02/02 Q1030 NOSIG RMK REG QNH 1026=
METAR LKVO NIL
METAR LOWI 231920Z AUTO 24002KT 9999 NSC M01/M02 Q1030=
METAR LOWL 231920Z AUTO 28007KT 9999 FEW010 OVC038 05/04 Q1031 BECMG BKN014=
METAR LOWS 231920Z 16003KT 9999 FEW025 SCT040 BKN060 03/01 Q1030 NOSIG=
METAR LOWW 231920Z 02003KT 9999 SCT035 BKN050 05/03 Q1030 NOSIG=
METAR LZIB 231930Z 04002KT 9000 FEW045 BKN063 02/01 Q1030=
METAR LZKZ 231930Z 35002KT 8000 BKN012 02/M00 Q1028=
METAR LZMC 231900Z VRB02KT 1500 R19/0650V1500N BR FEW010 BKN060 02/02 Q1030=
METAR LZPP 231930Z 35003KT 1500 BR OVC008 02/01 Q1030=
METAR LZSL 231930Z VRB02KT 8000 FEW048 M02/M03 Q1028=
METAR LZTT 231930Z 21003KT 160V270 9000 FEW010 OVC015 M01/M03 Q1026=
METAR LZZI 231930Z 30003KT 5000 BR OVC010 02/01 Q1029=